Time;durP1;ratioP1;P1;durP2;ratioP2;P2;SDS_P1;SDS_P2;PMS_P1;PMS_P2;Temp;Humidity;BMP_temperature;BMP_pressure;BME280_temperature;BME280_humidity;BME280_pressure;Samples;Min_cycle;Max_cycle;Signal;HPM_P1;HPM_P2
2024/04/16 00:00:08;;;;;;;10.73;8.18;;;25.70;99.90;;;;;;5345726;26;20001;-51
2024/04/16 00:02:34;;;;;;;12.65;9.15;;;25.60;99.90;;;;;;5344940;26;19997;-55
2024/04/16 00:05:00;;;;;;;10.77;8.57;;;25.60;99.90;;;;;;5344885;26;20363;-50
2024/04/16 00:07:25;;;;;;;14.27;9.30;;;25.60;99.90;;;;;;5344908;26;20387;-49
2024/04/16 00:09:51;;;;;;;13.98;9.55;;;25.60;99.90;;;;;;5344907;26;20291;-50
2024/04/16 00:12:17;;;;;;;12.50;9.55;;;25.60;99.90;;;;;;5344794;26;20365;-51
2024/04/16 00:14:43;;;;;;;13.52;10.05;;;25.60;99.90;;;;;;5344969;26;20024;-50
2024/04/16 00:17:08;;;;;;;15.50;9.55;;;25.60;99.90;;;;;;5345151;26;20070;-49
2024/04/16 00:19:34;;;;;;;10.80;8.88;;;25.60;99.90;;;;;;5344942;26;20001;-50
2024/04/16 00:22:01;;;;;;;14.05;10.18;;;25.60;99.90;;;;;;5343036;26;19997;-53
2024/04/16 00:24:27;;;;;;;13.15;9.85;;;25.50;99.90;;;;;;5344848;26;19997;-50
2024/04/16 00:26:52;;;;;;;15.43;10.70;;;25.60;99.90;;;;;;5342742;26;20008;-50
2024/04/16 00:29:18;;;;;;;17.85;10.13;;;25.50;99.90;;;;;;5344522;26;20063;-50
2024/04/16 00:31:44;;;;;;;11.60;8.88;;;25.50;99.90;;;;;;5344761;26;20444;-50
2024/04/16 00:34:10;;;;;;;13.32;9.77;;;25.50;99.90;;;;;;5345794;26;20047;-50
2024/04/16 00:36:36;;;;;;;14.25;10.27;;;25.60;99.90;;;;;;5348031;26;19997;-50
2024/04/16 00:39:02;;;;;;;13.95;10.32;;;25.50;99.90;;;;;;5347938;26;20008;-50
2024/04/16 00:41:28;;;;;;;12.45;9.85;;;25.50;99.90;;;;;;5347876;26;20001;-50
2024/04/16 00:43:54;;;;;;;14.45;9.80;;;25.50;99.90;;;;;;5347940;26;20008;-51
2024/04/16 00:46:20;;;;;;;12.68;9.60;;;25.50;99.90;;;;;;5348079;26;20421;-51
2024/04/16 00:48:46;;;;;;;14.38;9.55;;;25.50;99.90;;;;;;5336096;26;19998;-52
2024/04/16 00:51:12;;;;;;;13.43;9.93;;;25.50;99.90;;;;;;5315538;26;20079;-51
2024/04/16 00:53:38;;;;;;;13.50;10.02;;;25.50;99.90;;;;;;5345413;26;20416;-51
2024/04/16 00:56:05;;;;;;;12.43;9.18;;;25.50;99.90;;;;;;5347731;26;20005;-51
2024/04/16 00:58:34;;;;;;;14.82;10.82;;;25.40;99.90;;;;;;5347207;26;20001;-51
2024/04/16 01:01:00;;;;;;;12.48;9.90;;;25.40;99.90;;;;;;5348172;26;20326;-51
2024/04/16 01:03:26;;;;;;;12.10;10.02;;;25.40;99.90;;;;;;5345756;26;20012;-50
2024/04/16 01:05:52;;;;;;;14.02;9.65;;;25.40;99.90;;;;;;5347220;26;20012;-50
2024/04/16 01:08:18;;;;;;;14.35;10.07;;;25.40;99.90;;;;;;5347091;26;20040;-50
2024/04/16 01:10:44;;;;;;;13.48;9.95;;;25.40;99.90;;;;;;5347292;26;20083;-50
2024/04/16 01:13:10;;;;;;;15.20;9.75;;;25.40;99.90;;;;;;5346726;26;20015;-51
2024/04/16 01:15:36;;;;;;;13.25;9.57;;;25.40;99.90;;;;;;5345748;26;19997;-50
2024/04/16 01:18:03;;;;;;;12.98;9.75;;;25.40;99.90;;;;;;5345309;26;20001;-49
2024/04/16 01:20:30;;;;;;;11.18;8.82;;;25.40;99.90;;;;;;5344068;26;20017;-50
2024/04/16 01:22:56;;;;;;;13.40;9.90;;;25.40;99.90;;;;;;5344091;26;20004;-51
2024/04/16 01:25:21;;;;;;;12.77;9.95;;;25.40;99.90;;;;;;5344298;26;20420;-50
2024/04/16 01:27:47;;;;;;;11.57;8.55;;;25.40;99.90;;;;;;5344642;26;20062;-50
2024/04/16 01:30:13;;;;;;;11.52;9.13;;;25.40;99.90;;;;;;5344203;26;20357;-50
2024/04/16 01:32:39;;;;;;;13.38;9.52;;;25.40;99.90;;;;;;5344192;26;19993;-50
2024/04/16 01:35:05;;;;;;;12.32;9.30;;;25.40;99.90;;;;;;5345426;26;20024;-49
2024/04/16 01:37:30;;;;;;;12.10;9.50;;;25.40;99.90;;;;;;5347285;26;20446;-50
2024/04/16 01:39:57;;;;;;;12.18;8.68;;;25.40;99.90;;;;;;5346809;26;20023;-50
2024/04/16 01:42:23;;;;;;;12.87;9.90;;;25.30;99.90;;;;;;5346907;26;20412;-50
2024/04/16 01:44:51;;;;;;;10.52;8.45;;;25.30;99.90;;;;;;5346780;26;19996;-49
2024/04/16 01:47:17;;;;;;;11.20;8.57;;;25.30;99.90;;;;;;5346829;26;19993;-50
2024/04/16 01:49:42;;;;;;;13.80;9.30;;;25.30;99.90;;;;;;5346937;26;20020;-50
2024/04/16 01:52:08;;;;;;;10.00;8.02;;;25.30;99.90;;;;;;5345204;26;19997;-51
2024/04/16 01:54:34;;;;;;;13.80;9.48;;;25.30;99.90;;;;;;5346638;26;20036;-50
2024/04/16 01:57:02;;;;;;;10.88;8.23;;;25.30;99.90;;;;;;5346854;26;20322;-50
2024/04/16 01:59:28;;;;;;;12.75;8.35;;;25.30;99.90;;;;;;5346698;26;20453;-50
2024/04/16 02:01:53;;;;;;;12.23;9.18;;;25.30;99.90;;;;;;5345346;26;20032;-51
2024/04/16 02:04:19;;;;;;;9.85;8.32;;;25.30;99.90;;;;;;5346721;26;19992;-50
2024/04/16 02:06:45;;;;;;;11.20;8.65;;;25.30;99.90;;;;;;5346565;26;20026;-50
2024/04/16 02:09:11;;;;;;;11.43;7.75;;;25.30;99.90;;;;;;5346655;26;19997;-50
2024/04/16 02:11:37;;;;;;;9.77;8.00;;;25.30;99.90;;;;;;5346621;26;20005;-50
2024/04/16 02:14:02;;;;;;;9.27;7.47;;;25.20;99.90;;;;;;5346749;26;19997;-50
2024/04/16 02:16:28;;;;;;;11.32;8.25;;;25.30;99.90;;;;;;5346522;26;20004;-50
2024/04/16 02:18:54;;;;;;;10.93;8.73;;;25.20;99.90;;;;;;5346728;26;20062;-50
2024/04/16 02:21:20;;;;;;;11.45;8.20;;;25.20;99.90;;;;;;5346515;26;19993;-49
2024/04/16 02:23:47;;;;;;;12.27;8.38;;;25.20;99.90;;;;;;5346264;26;19993;-49
2024/04/16 02:26:13;;;;;;;10.40;7.82;;;25.20;99.90;;;;;;5346275;26;20069;-50
2024/04/16 02:28:39;;;;;;;10.95;8.43;;;25.20;99.90;;;;;;5344566;26;19996;-49
2024/04/16 02:31:04;;;;;;;10.50;8.40;;;25.20;99.90;;;;;;5346616;26;20032;-49
2024/04/16 02:33:30;;;;;;;10.20;8.02;;;25.20;99.90;;;;;;5346509;26;20001;-49
2024/04/16 02:36:03;;;;;;;9.98;8.20;;;25.20;99.90;;;;;;5346344;26;20003;-48
2024/04/16 02:38:29;;;;;;;10.82;7.88;;;25.20;99.90;;;;;;5344640;26;20029;-48
2024/04/16 02:40:56;;;;;;;11.27;7.97;;;25.20;99.90;;;;;;5346520;26;20005;-49
2024/04/16 02:43:21;;;;;;;9.70;8.18;;;25.20;99.90;;;;;;5346275;26;20029;-50
2024/04/16 02:45:47;;;;;;;13.35;8.55;;;25.20;99.90;;;;;;5346239;26;20001;-51
2024/04/16 02:48:13;;;;;;;10.95;7.88;;;25.20;99.90;;;;;;5346160;26;20340;-50
2024/04/16 02:50:40;;;;;;;11.27;8.27;;;25.20;99.90;;;;;;5346130;26;20008;-50
2024/04/16 02:53:06;;;;;;;9.23;7.97;;;25.20;99.90;;;;;;5346319;26;20025;-50
2024/04/16 02:55:33;;;;;;;12.77;9.02;;;25.20;99.90;;;;;;5345483;26;19997;-51
2024/04/16 02:57:59;;;;;;;11.68;9.13;;;25.20;99.90;;;;;;5345993;26;20008;-50
2024/04/16 03:00:25;;;;;;;10.38;8.48;;;25.20;99.90;;;;;;5346531;26;20008;-50
2024/04/16 03:02:51;;;;;;;10.65;8.40;;;25.20;99.90;;;;;;5345921;26;20020;-49
2024/04/16 03:05:16;;;;;;;10.45;7.88;;;25.10;99.90;;;;;;5344056;26;20008;-49
2024/04/16 03:07:43;;;;;;;10.82;8.15;;;25.10;99.90;;;;;;5315553;26;20011;-49
2024/04/16 03:10:15;;;;;;;12.13;9.05;;;25.10;99.90;;;;;;5345823;26;20330;-50
2024/04/16 03:12:42;;;;;;;11.20;9.00;;;25.10;99.90;;;;;;5343942;26;20448;-50
2024/04/16 03:15:08;;;;;;;10.70;8.25;;;25.10;99.90;;;;;;5344242;26;20108;-50
2024/04/16 03:17:34;;;;;;;11.45;8.82;;;25.10;99.90;;;;;;5346095;26;20012;-50
2024/04/16 03:20:00;;;;;;;11.57;8.95;;;25.10;99.90;;;;;;5345647;26;19997;-50
2024/04/16 03:22:26;;;;;;;11.05;8.27;;;25.10;99.90;;;;;;5345661;26;20311;-50
2024/04/16 03:24:52;;;;;;;9.57;8.05;;;25.10;99.90;;;;;;5345659;26;20443;-50
2024/04/16 03:27:17;;;;;;;9.85;7.78;;;25.10;99.90;;;;;;5345574;26;19997;-50
2024/04/16 03:29:43;;;;;;;12.45;7.65;;;25.10;99.90;;;;;;5345597;26;20001;-50
2024/04/16 03:32:09;;;;;;;9.45;7.72;;;25.10;99.90;;;;;;5343792;26;20005;-50
2024/04/16 03:34:35;;;;;;;9.82;7.07;;;25.10;99.90;;;;;;5345712;26;20001;-50
2024/04/16 03:37:01;;;;;;;9.85;6.93;;;25.10;99.90;;;;;;5345458;26;20454;-50
2024/04/16 03:39:27;;;;;;;7.97;6.30;;;25.10;99.90;;;;;;5345450;26;20008;-50
2024/04/16 03:41:52;;;;;;;9.40;7.35;;;25.10;99.90;;;;;;5345477;26;20012;-50
2024/04/16 03:44:18;;;;;;;9.82;7.50;;;25.00;99.90;;;;;;5345450;26;20001;-50
2024/04/16 03:46:44;;;;;;;7.80;6.55;;;25.10;99.90;;;;;;5345344;26;20422;-50
2024/04/16 03:49:10;;;;;;;9.45;6.95;;;25.00;99.90;;;;;;5343692;26;20001;-50
2024/04/16 03:51:36;;;;;;;15.98;7.10;;;25.00;99.90;;;;;;5345568;26;19997;-51
2024/04/16 03:54:01;;;;;;;10.25;6.60;;;25.10;99.90;;;;;;5335062;26;19994;-52
2024/04/16 03:56:27;;;;;;;10.30;7.05;;;25.10;99.90;;;;;;5307306;26;20012;-52
2024/04/16 03:59:37;;;;;;;9.10;6.28;;;25.00;99.90;;;;;;5307137;26;20126;-51
2024/04/16 04:01:42;;;;;;;8.50;6.95;;;25.00;99.90;;;;;;5302866;26;19997;-51
2024/04/16 04:04:08;;;;;;;8.63;6.50;;;25.00;99.90;;;;;;5306422;27;20026;-51
2024/04/16 04:06:34;;;;;;;8.90;7.00;;;25.00;99.90;;;;;;5308016;26;19994;-48
2024/04/16 04:09:00;;;;;;;9.55;6.47;;;25.00;99.90;;;;;;5310610;26;19993;-50
2024/04/16 04:11:26;;;;;;;7.75;6.40;;;25.00;99.90;;;;;;5313895;26;20000;-50
2024/04/16 04:13:51;;;;;;;8.38;6.20;;;25.00;99.90;;;;;;5313753;26;19997;-50
2024/04/16 04:16:17;;;;;;;8.65;6.10;;;25.00;99.90;;;;;;5313789;26;19998;-50
2024/04/16 04:18:44;;;;;;;7.93;5.88;;;25.00;99.90;;;;;;5312041;26;19998;-50
2024/04/16 04:21:10;;;;;;;6.72;6.03;;;25.00;99.90;;;;;;5313611;26;19997;-51
2024/04/16 04:23:36;;;;;;;7.57;5.70;;;25.00;99.90;;;;;;5313822;26;20074;-51
2024/04/16 04:26:02;;;;;;;7.63;5.22;;;25.00;99.90;;;;;;5313772;27;20038;-50
2024/04/16 04:28:28;;;;;;;6.32;5.10;;;25.00;99.90;;;;;;5313370;26;19998;-50
2024/04/16 04:30:54;;;;;;;7.00;5.63;;;25.00;99.90;;;;;;5313440;26;20323;-50
2024/04/16 04:33:20;;;;;;;7.78;6.30;;;25.00;99.90;;;;;;5313943;26;19998;-50
2024/04/16 04:35:46;;;;;;;7.82;6.13;;;25.00;99.90;;;;;;5335566;26;20020;-50
2024/04/16 04:38:11;;;;;;;8.18;5.68;;;25.00;99.90;;;;;;5339162;26;20468;-51
2024/04/16 04:40:37;;;;;;;7.38;5.60;;;24.90;99.90;;;;;;5330875;26;20006;-50
2024/04/16 04:43:03;;;;;;;7.65;5.80;;;25.00;99.90;;;;;;5339467;26;20005;-50
2024/04/16 04:45:29;;;;;;;6.18;4.95;;;25.00;99.90;;;;;;5347781;26;20008;-50
2024/04/16 04:47:55;;;;;;;8.18;5.68;;;25.00;99.90;;;;;;5339411;26;20016;-51
2024/04/16 04:50:20;;;;;;;8.10;5.35;;;25.00;99.90;;;;;;5309549;26;19998;-50
2024/04/16 04:52:46;;;;;;;14.20;6.50;;;24.90;99.90;;;;;;5309936;26;20544;-51
2024/04/16 04:55:12;;;;;;;8.95;6.00;;;24.90;99.90;;;;;;5308284;27;20807;-51
2024/04/16 04:57:40;;;;;;;6.90;5.70;;;24.90;99.90;;;;;;5310077;27;20005;-50
2024/04/16 05:00:06;;;;;;;7.60;5.32;;;24.90;99.90;;;;;;5309495;27;20434;-50
2024/04/16 05:02:32;;;;;;;9.68;6.03;;;24.90;99.90;;;;;;5309581;27;20516;-50
2024/04/16 05:04:58;;;;;;;7.65;5.22;;;24.90;99.90;;;;;;5312639;27;20010;-50
2024/04/16 05:07:23;;;;;;;10.05;5.78;;;24.90;99.90;;;;;;5313181;27;20461;-51
2024/04/16 05:09:51;;;;;;;7.68;5.15;;;24.90;99.90;;;;;;5313026;26;20367;-50
2024/04/16 05:12:17;;;;;;;6.85;5.50;;;24.90;99.90;;;;;;5313157;26;20002;-51
2024/04/16 05:14:43;;;;;;;7.63;5.07;;;24.90;99.90;;;;;;5311282;27;20703;-51
2024/04/16 05:17:09;;;;;;;7.72;5.18;;;24.90;99.90;;;;;;5313360;26;20005;-50
2024/04/16 05:19:35;;;;;;;9.57;6.00;;;24.80;99.90;;;;;;5312410;27;20338;-50
2024/04/16 05:22:01;;;;;;;7.03;4.93;;;24.90;99.90;;;;;;5313053;27;20048;-51
2024/04/16 05:24:27;;;;;;;7.35;5.30;;;24.90;99.90;;;;;;5312948;26;20001;-49
2024/04/16 05:26:53;;;;;;;6.25;4.85;;;24.90;99.90;;;;;;5312564;27;20442;-49
2024/04/16 05:29:18;;;;;;;8.43;4.95;;;24.90;99.90;;;;;;5312648;27;20001;-50
2024/04/16 05:31:44;;;;;;;6.57;4.68;;;24.80;99.90;;;;;;5339617;26;20012;-50
2024/04/16 05:34:10;;;;;;;7.00;5.13;;;24.80;99.90;;;;;;5312863;27;20042;-50
2024/04/16 05:36:36;;;;;;;5.57;4.60;;;24.80;99.90;;;;;;5312520;27;20005;-50
2024/04/16 05:39:02;;;;;;;7.38;5.00;;;24.80;99.90;;;;;;5312470;27;20009;-49
2024/04/16 05:41:27;;;;;;;8.73;4.90;;;24.80;99.90;;;;;;5312450;26;20013;-51
2024/04/16 05:43:53;;;;;;;7.55;5.20;;;24.80;99.90;;;;;;5310835;26;20339;-50
2024/04/16 05:46:19;;;;;;;7.32;5.05;;;24.80;99.90;;;;;;5312301;27;20008;-50
2024/04/16 05:48:46;;;;;;;6.82;5.30;;;24.80;99.90;;;;;;5310731;27;20001;-50
2024/04/16 05:51:13;;;;;;;9.65;5.20;;;24.80;99.90;;;;;;5312703;26;20357;-50
2024/04/16 05:53:39;;;;;;;8.48;5.80;;;24.80;99.90;;;;;;5312300;26;20076;-50
2024/04/16 05:56:05;;;;;;;8.35;5.72;;;24.80;99.90;;;;;;5312301;26;20001;-50
2024/04/16 05:58:31;;;;;;;8.63;5.97;;;24.80;99.90;;;;;;5312274;26;20005;-50
2024/04/16 06:00:57;;;;;;;9.85;6.97;;;24.80;99.90;;;;;;5312287;26;20009;-50
2024/04/16 06:03:24;;;;;;;7.88;5.45;;;24.80;99.90;;;;;;5312180;27;20002;-50
2024/04/16 06:05:49;;;;;;;10.97;5.73;;;24.70;99.90;;;;;;5312247;26;20012;-49
2024/04/16 06:08:15;;;;;;;7.50;5.95;;;24.80;99.90;;;;;;5312892;27;20229;-49
2024/04/16 06:10:41;;;;;;;9.85;6.55;;;24.80;99.90;;;;;;5312464;26;20400;-50
2024/04/16 06:13:07;;;;;;;7.47;5.38;;;24.70;99.90;;;;;;5311858;27;20001;-51
2024/04/16 06:15:33;;;;;;;9.57;6.03;;;24.70;99.90;;;;;;5311927;27;20430;-49
2024/04/16 06:17:59;;;;;;;9.30;5.90;;;24.80;99.90;;;;;;5312078;26;20071;-51
2024/04/16 06:20:24;;;;;;;7.47;5.43;;;24.70;99.90;;;;;;5312214;26;19998;-50
2024/04/16 06:22:50;;;;;;;7.65;5.40;;;24.70;99.90;;;;;;5312154;26;20009;-50
2024/04/16 06:25:16;;;;;;;8.30;5.85;;;24.70;99.90;;;;;;5312124;27;20013;-51
2024/04/16 06:27:42;;;;;;;7.88;5.57;;;24.70;99.90;;;;;;5338718;26;20072;-50
2024/04/16 06:30:08;;;;;;;7.85;5.53;;;24.70;99.90;;;;;;5310712;27;20013;-50
2024/04/16 06:32:34;;;;;;;8.30;5.55;;;24.70;99.90;;;;;;5310197;26;20401;-51
2024/04/16 06:35:00;;;;;;;8.23;5.72;;;24.70;99.90;;;;;;5312114;27;20450;-49
2024/04/16 06:37:25;;;;;;;9.13;6.22;;;24.70;99.90;;;;;;5311993;27;20012;-50
2024/04/16 06:39:51;;;;;;;8.30;6.13;;;24.70;99.90;;;;;;5309868;26;20000;-51
2024/04/16 06:42:17;;;;;;;7.97;5.60;;;24.70;99.90;;;;;;5311749;27;20001;-50
2024/04/16 06:44:43;;;;;;;7.38;5.38;;;24.70;99.90;;;;;;5312095;27;20001;-50
2024/04/16 06:47:09;;;;;;;9.52;5.93;;;24.70;99.90;;;;;;5309900;27;20079;-50
2024/04/16 06:49:34;;;;;;;9.23;5.78;;;24.70;99.90;;;;;;5309749;26;20008;-49
2024/04/16 06:52:00;;;;;;;9.82;5.18;;;24.70;99.90;;;;;;5311532;27;20442;-49
2024/04/16 06:54:26;;;;;;;8.60;5.43;;;24.70;99.90;;;;;;5309801;26;19998;-50
2024/04/16 06:56:52;;;;;;;6.80;4.80;;;24.70;99.90;;;;;;5311476;26;20430;-50
2024/04/16 06:59:17;;;;;;;7.00;5.07;;;24.70;99.90;;;;;;5311706;27;20397;-50
2024/04/16 07:01:43;;;;;;;9.75;5.57;;;24.70;99.90;;;;;;5338391;26;20001;-50
2024/04/16 07:04:11;;;;;;;8.95;5.65;;;24.70;99.90;;;;;;5311501;26;20045;-50
2024/04/16 07:06:36;;;;;;;6.70;4.93;;;24.70;99.90;;;;;;5311600;26;20009;-50
2024/04/16 07:09:02;;;;;;;6.07;4.68;;;24.70;99.90;;;;;;5311419;27;20034;-50
2024/04/16 07:11:28;;;;;;;7.05;5.47;;;24.70;99.90;;;;;;5311470;26;19997;-51
2024/04/16 07:13:54;;;;;;;6.50;4.78;;;24.70;99.90;;;;;;5311259;27;20013;-51
2024/04/16 07:16:19;;;;;;;7.80;5.38;;;24.70;99.90;;;;;;5311093;27;20008;-50
2024/04/16 07:18:47;;;;;;;6.38;5.25;;;24.70;99.90;;;;;;5311754;26;20323;-51
2024/04/16 07:21:13;;;;;;;;;;;24.70;99.90;;;;;;5310087;27;19998;-50
2024/04/16 07:23:38;;;;;;;8.15;5.35;;;24.70;99.90;;;;;;5311108;27;20351;-50
2024/04/16 07:26:04;;;;;;;6.82;4.70;;;24.70;99.90;;;;;;5311108;26;19994;-50
2024/04/16 07:28:30;;;;;;;8.15;4.60;;;24.70;99.90;;;;;;5310873;27;20339;-50
2024/04/16 07:30:56;;;;;;;10.52;4.88;;;24.70;99.90;;;;;;5310734;27;20034;-49
2024/04/16 07:33:23;;;;;;;7.05;5.47;;;24.70;99.90;;;;;;5310976;27;20070;-49
2024/04/16 07:35:49;;;;;;;;;;;24.70;99.90;;;;;;5311558;26;20071;-49
2024/04/16 07:38:16;;;;;;;7.97;4.75;;;24.70;99.90;;;;;;5337741;26;20302;-49
2024/04/16 07:40:52;;;;;;;4.68;4.18;;;24.70;99.90;;;;;;5310718;26;19998;-49
2024/04/16 07:43:18;;;;;;;5.75;4.30;;;24.70;99.90;;;;;;5314041;27;20405;-49
2024/04/16 07:45:44;;;;;;;6.07;4.47;;;24.70;99.90;;;;;;5313804;26;20456;-50
2024/04/16 07:48:10;;;;;;;6.35;4.55;;;24.70;99.90;;;;;;5313653;27;19994;-50
2024/04/16 07:50:35;;;;;;;8.88;4.95;;;24.70;99.90;;;;;;5313603;27;20005;-50
2024/04/16 07:53:01;;;;;;;7.18;4.72;;;24.70;99.90;;;;;;5313640;27;20008;-51
2024/04/16 07:55:27;;;;;;;6.57;4.45;;;24.70;99.90;;;;;;5313932;26;20303;-51
2024/04/16 07:57:53;;;;;;;6.65;4.40;;;24.70;99.90;;;;;;5340664;26;20063;-50
2024/04/16 08:00:19;;;;;;;7.53;3.97;;;24.70;99.90;;;;;;5314083;27;19998;-50
2024/04/16 08:02:45;;;;;;;6.57;4.32;;;24.70;99.90;;;;;;5313485;27;20329;-50
2024/04/16 08:05:11;;;;;;;5.03;3.95;;;24.70;99.90;;;;;;5313695;26;20004;-51
2024/04/16 08:07:36;;;;;;;9.35;4.80;;;24.70;99.90;;;;;;5313739;27;20434;-51
2024/04/16 08:10:03;;;;;;;8.63;5.20;;;24.70;99.90;;;;;;5340795;26;20319;-50
2024/04/16 08:12:29;;;;;;;7.10;4.63;;;24.70;99.90;;;;;;5311850;27;19993;-51
2024/04/16 08:14:55;;;;;;;7.65;4.63;;;24.70;99.90;;;;;;5317679;26;20016;-50
2024/04/16 08:17:20;;;;;;;6.55;4.82;;;24.70;99.90;;;;;;5321656;26;20012;-51
2024/04/16 08:19:46;;;;;;;6.65;4.80;;;24.70;99.90;;;;;;5337327;26;19993;-51
2024/04/16 08:22:13;;;;;;;5.43;4.50;;;24.70;99.90;;;;;;5309991;26;20001;-51
2024/04/16 08:24:38;;;;;;;6.78;4.70;;;24.70;99.90;;;;;;5309951;26;20004;-50
2024/04/16 08:27:04;;;;;;;6.38;4.15;;;24.80;99.90;;;;;;5309860;26;19998;-50
2024/04/16 08:29:30;;;;;;;5.82;4.25;;;24.70;99.90;;;;;;5336888;26;20035;-50
2024/04/16 08:31:56;;;;;;;5.88;4.32;;;24.70;99.90;;;;;;5310224;26;20004;-49
2024/04/16 08:34:22;;;;;;;6.97;5.03;;;24.70;99.90;;;;;;5338649;26;20018;-50
2024/04/16 08:36:47;;;;;;;6.38;4.82;;;24.70;99.90;;;;;;5313307;26;19993;-50
2024/04/16 08:39:13;;;;;;;7.28;4.95;;;24.70;99.90;;;;;;5313431;26;20001;-50
2024/04/16 08:41:39;;;;;;;6.35;5.03;;;24.80;99.90;;;;;;5313441;26;20004;-50
2024/04/16 08:44:06;;;;;;;8.40;4.63;;;24.80;99.90;;;;;;5313392;26;20324;-50
2024/04/16 08:46:34;;;;;;;6.38;3.83;;;24.80;99.90;;;;;;5313657;26;20067;-49
2024/04/16 08:49:01;;;;;;;7.85;5.10;;;24.80;99.90;;;;;;5313093;26;20021;-50
2024/04/16 08:51:29;;;;;;;6.25;4.47;;;24.80;99.90;;;;;;5340260;26;20008;-51
2024/04/16 08:53:56;;;;;;;5.40;4.28;;;24.80;99.90;;;;;;5312144;26;20328;-52
2024/04/16 08:56:23;;;;;;;5.30;4.13;;;24.80;99.90;;;;;;5313510;26;19993;-51
2024/04/16 08:58:49;;;;;;;5.82;4.57;;;24.80;99.90;;;;;;5313617;26;20002;-50
2024/04/16 09:01:16;;;;;;;5.03;4.00;;;24.80;99.90;;;;;;5313085;26;20459;-52
2024/04/16 09:03:49;;;;;;;6.70;4.28;;;24.80;99.90;;;;;;5339934;26;19993;-51
2024/04/16 09:06:16;;;;;;;7.15;4.78;;;24.80;99.90;;;;;;5313056;26;20467;-51
2024/04/16 09:08:44;;;;;;;10.45;5.13;;;24.80;99.90;;;;;;5312916;26;19997;-51
2024/04/16 09:11:11;;;;;;;9.93;5.72;;;24.80;99.90;;;;;;5312956;26;19994;-50
2024/04/16 09:13:43;;;;;;;6.68;4.65;;;24.80;99.90;;;;;;5313096;26;20006;-51
2024/04/16 09:16:13;;;;;;;10.27;4.93;;;24.80;99.90;;;;;;5312931;26;20012;-52
2024/04/16 09:18:39;;;;;;;6.13;4.75;;;24.80;99.90;;;;;;5312905;26;20366;-52
2024/04/16 09:21:05;;;;;;;6.50;5.00;;;24.80;99.90;;;;;;5312979;26;19998;-49
2024/04/16 09:23:32;;;;;;;4.68;4.13;;;24.80;99.90;;;;;;5312862;26;19997;-49
2024/04/16 09:25:58;;;;;;;7.88;5.60;;;24.80;99.90;;;;;;5311048;27;19998;-50
2024/04/16 09:28:24;;;;;;;10.82;4.90;;;24.90;99.90;;;;;;5313040;26;20012;-53
2024/04/16 09:30:57;;;;;;;9.20;5.30;;;24.90;99.90;;;;;;5312787;26;20001;-50
2024/04/16 09:33:23;;;;;;;5.35;4.43;;;24.90;99.90;;;;;;5312937;26;20001;-50
2024/04/16 09:35:49;;;;;;;6.50;4.57;;;24.90;99.90;;;;;;5312710;26;20012;-50
2024/04/16 09:38:15;;;;;;;5.93;4.87;;;24.90;99.90;;;;;;5312758;26;20029;-52
2024/04/16 09:40:42;;;;;;;8.30;4.63;;;24.90;99.90;;;;;;5312656;26;20013;-49
2024/04/16 09:43:08;;;;;;;5.72;4.32;;;24.90;99.90;;;;;;5310680;27;20052;-50
2024/04/16 09:45:37;;;;;;;9.07;4.57;;;24.90;99.90;;;;;;5312873;26;19999;-50
2024/04/16 09:48:06;;;;;;;7.18;4.60;;;24.90;99.90;;;;;;5312693;26;19998;-50
2024/04/16 09:50:35;;;;;;;5.93;4.10;;;24.90;99.90;;;;;;5312522;26;20012;-50
2024/04/16 09:53:04;;;;;;;7.22;4.78;;;24.90;99.90;;;;;;5312405;26;20369;-50
2024/04/16 09:55:31;;;;;;;6.68;4.38;;;25.00;99.90;;;;;;5312673;26;19997;-50
2024/04/16 09:58:00;;;;;;;5.28;3.90;;;24.90;99.90;;;;;;5312571;26;20009;-50
2024/04/16 10:00:27;;;;;;;10.02;4.20;;;25.00;99.90;;;;;;5312550;26;20011;-50
2024/04/16 10:02:55;;;;;;;5.90;3.45;;;25.00;99.90;;;;;;5312508;26;20012;-50
2024/04/16 10:05:21;;;;;;;5.63;4.20;;;25.00;99.90;;;;;;5312233;26;20013;-50
2024/04/16 10:07:48;;;;;;;5.53;4.30;;;25.00;99.90;;;;;;5312183;26;20002;-50
2024/04/16 10:10:15;;;;;;;7.43;4.05;;;25.00;99.90;;;;;;5312146;26;20030;-50
2024/04/16 10:12:42;;;;;;;10.93;4.55;;;25.00;99.90;;;;;;5312466;26;20001;-50
2024/04/16 10:15:11;;;;;;;5.97;4.28;;;25.00;99.90;;;;;;5312342;26;20017;-52
2024/04/16 10:17:56;;;;;;;9.30;4.28;;;25.00;99.90;;;;;;5339072;26;20008;-52
2024/04/16 10:20:26;;;;;;;5.65;3.95;;;25.00;99.90;;;;;;5312131;26;20520;-52
2024/04/16 10:23:00;;;;;;;6.00;4.15;;;25.00;99.90;;;;;;5312204;26;20038;-52
2024/04/16 10:25:27;;;;;;;11.38;4.03;;;25.00;99.90;;;;;;5312374;26;20002;-51
2024/04/16 10:27:53;;;;;;;6.82;4.22;;;25.10;99.90;;;;;;5312098;26;20408;-52
2024/04/16 10:30:19;;;;;;;6.97;4.88;;;25.10;99.90;;;;;;5338979;26;20001;-52
2024/04/16 10:32:47;;;;;;;5.55;4.00;;;25.10;99.90;;;;;;5312304;26;20010;-52
2024/04/16 10:35:16;;;;;;;6.03;4.32;;;25.10;99.90;;;;;;5312128;26;20401;-51
2024/04/16 10:37:50;;;;;;;6.20;4.60;;;25.10;99.90;;;;;;5311913;26;20009;-53
2024/04/16 10:40:27;;;;;;;7.40;5.07;;;25.20;99.90;;;;;;5311809;26;20002;-51
2024/04/16 10:42:53;;;;;;;;;;;25.10;99.90;;;;;;5312313;26;20331;-51
2024/04/16 10:45:21;;;;;;;8.68;5.20;;;25.20;99.90;;;;;;5311766;26;19938;-55
2024/04/16 10:47:48;;;;;;;8.02;5.78;;;25.20;99.90;;;;;;5311663;26;20158;-52
2024/04/16 10:50:14;;;;;;;8.52;5.25;;;25.20;99.90;;;;;;5311891;26;20009;-52
2024/04/16 10:52:40;;;;;;;7.18;4.90;;;25.20;99.90;;;;;;5311591;26;20345;-52
2024/04/16 10:55:05;;;;;;;8.57;5.53;;;25.30;99.90;;;;;;5311509;26;20010;-52
2024/04/16 10:57:32;;;;;;;8.13;5.30;;;25.20;99.90;;;;;;5311684;26;20306;-53
2024/04/16 10:59:57;;;;;;;7.32;5.22;;;25.30;99.90;;;;;;5312016;27;19993;-52
2024/04/16 11:02:25;;;;;;;6.80;5.07;;;25.30;99.90;;;;;;5311164;26;20005;-52
2024/04/16 11:04:51;;;;;;;9.30;5.10;;;25.30;99.90;;;;;;5311420;26;20491;-52
2024/04/16 11:07:17;;;;;;;8.48;4.72;;;25.30;99.90;;;;;;5338402;26;20002;-52
2024/04/16 11:09:43;;;;;;;6.97;4.82;;;25.30;99.90;;;;;;5338394;26;19997;-52
2024/04/16 11:12:09;;;;;;;6.75;5.07;;;25.40;99.90;;;;;;5311622;26;20072;-52
2024/04/16 11:14:35;;;;;;;5.10;4.43;;;25.40;99.90;;;;;;5311494;26;20397;-51
2024/04/16 11:17:05;;;;;;;7.32;4.88;;;25.40;99.90;;;;;;5311191;26;19997;-53
2024/04/16 11:19:31;;;;;;;6.75;5.35;;;25.40;99.90;;;;;;5311652;26;20014;-52
2024/04/16 11:21:58;;;;;;;9.48;5.80;;;25.40;99.90;;;;;;5338466;26;20071;-53
2024/04/16 11:24:24;;;;;;;11.68;7.03;;;25.40;99.90;;;;;;5309644;27;19997;-51
2024/04/16 11:26:50;;;;;;;8.60;5.95;;;25.40;99.90;;;;;;5311281;26;19998;-51
2024/04/16 11:29:20;;;;;;;9.27;5.40;;;25.40;99.90;;;;;;5310794;26;20011;-53
2024/04/16 11:31:46;;;;;;;8.02;5.55;;;25.40;99.90;;;;;;5311376;26;20060;-52
2024/04/16 11:34:12;;;;;;;8.15;5.18;;;25.50;99.90;;;;;;5310928;26;20002;-52
2024/04/16 11:36:48;;;;;;;9.43;5.75;;;25.50;99.90;;;;;;5311027;26;20001;-52
2024/04/16 11:39:13;;;;;;;9.27;6.10;;;25.50;99.90;;;;;;5315252;26;20319;-52
2024/04/16 11:41:39;;;;;;;10.00;6.20;;;25.50;99.90;;;;;;5325398;26;19998;-52
2024/04/16 11:44:05;;;;;;;7.30;5.65;;;25.50;99.90;;;;;;5344854;26;20396;-52
2024/04/16 11:46:31;;;;;;;8.38;5.82;;;25.50;99.90;;;;;;5344848;26;19997;-52
2024/04/16 11:48:57;;;;;;;10.70;6.13;;;25.50;99.90;;;;;;5341579;26;20021;-52
2024/04/16 11:51:23;;;;;;;11.32;6.60;;;25.60;99.90;;;;;;5341465;26;20051;-52
2024/04/16 11:53:49;;;;;;;8.77;5.90;;;25.60;99.90;;;;;;5341566;26;20069;-51
2024/04/16 11:56:15;;;;;;;10.40;6.78;;;25.60;99.90;;;;;;5339639;26;20330;-52
2024/04/16 11:58:41;;;;;;;9.68;7.00;;;25.60;99.90;;;;;;5341296;26;19997;-52
2024/04/16 12:01:08;;;;;;;8.60;6.80;;;25.70;99.90;;;;;;5341456;26;20003;-53
2024/04/16 12:03:34;;;;;;;8.60;6.22;;;25.60;99.90;;;;;;5341332;26;20457;-52
2024/04/16 12:06:00;;;;;;;8.40;6.10;;;25.70;99.90;;;;;;5344978;26;20005;-51
2024/04/16 12:08:26;;;;;;;10.60;6.35;;;25.70;99.90;;;;;;5344627;26;20004;-52
2024/04/16 12:10:52;;;;;;;6.90;5.18;;;25.70;99.90;;;;;;5344736;26;20004;-51
2024/04/16 12:13:17;;;;;;;8.45;5.70;;;25.70;99.90;;;;;;5342748;26;20001;-52
2024/04/16 12:15:43;;;;;;;7.28;5.32;;;25.80;99.90;;;;;;5342806;26;19996;-51
2024/04/16 12:18:09;;;;;;;8.27;5.80;;;25.70;99.90;;;;;;5344414;26;20009;-51
2024/04/16 12:20:35;;;;;;;7.60;5.78;;;25.80;99.90;;;;;;5344622;26;20029;-52
2024/04/16 12:23:01;;;;;;;7.90;5.45;;;25.80;99.90;;;;;;5344812;26;19993;-51
2024/04/16 12:25:27;;;;;;;7.43;5.63;;;25.80;99.90;;;;;;5344305;26;20097;-51
2024/04/16 12:27:53;;;;;;;6.20;5.43;;;25.80;99.90;;;;;;5344200;26;19997;-51
2024/04/16 12:30:18;;;;;;;6.85;5.63;;;25.90;99.90;;;;;;5345625;26;19993;-52
2024/04/16 12:32:44;;;;;;;9.23;5.53;;;25.90;99.90;;;;;;5347942;26;20001;-51
2024/04/16 12:35:10;;;;;;;7.18;5.50;;;25.90;99.90;;;;;;5347900;26;20004;-50
2024/04/16 12:37:36;;;;;;;8.50;5.65;;;25.90;99.90;;;;;;5346214;26;19992;-51